createdAt,value
2023-08-19T00:03:27.035Z,22.16
2023-08-19T00:13:32.789Z,22.36
2023-08-19T00:23:38.651Z,22.44
2023-08-19T00:33:42.413Z,22.53
2023-08-19T00:43:47.789Z,22.49
2023-08-19T00:53:54.347Z,22.33
2023-08-19T01:03:59.193Z,22.36
2023-08-19T01:14:12.181Z,22.42
2023-08-19T01:24:23.258Z,22.40
2023-08-19T01:34:27.348Z,22.35
2023-08-19T01:44:32.801Z,22.34
2023-08-19T01:54:36.465Z,22.47
2023-08-19T02:04:41.958Z,22.49
2023-08-19T02:14:47.125Z,22.44
2023-08-19T02:24:50.924Z,22.42
2023-08-19T02:34:54.712Z,22.55
2023-08-19T02:45:01.126Z,22.63
2023-08-19T02:55:06.073Z,22.68
2023-08-19T03:05:11.721Z,22.67
2023-08-19T03:15:15.508Z,22.72
2023-08-19T03:25:19.270Z,22.82
2023-08-19T03:35:24.863Z,22.96
2023-08-19T03:45:28.676Z,23.17
2023-08-19T03:55:32.567Z,23.43
2023-08-19T04:05:36.497Z,23.67
2023-08-19T04:15:40.660Z,23.71
2023-08-19T04:25:48.663Z,23.55
2023-08-19T04:35:52.724Z,23.58
2023-08-19T04:45:59.454Z,25.49
2023-08-19T04:56:05.640Z,26.19
2023-08-19T05:06:16.485Z,26.22
2023-08-19T05:16:22.147Z,26.35
2023-08-19T05:26:26.277Z,26.41
2023-08-19T05:36:31.669Z,26.58
2023-08-19T05:46:35.717Z,26.88
2023-08-19T05:56:39.787Z,27.40
2023-08-19T06:06:43.717Z,27.88
2023-08-19T06:16:53.095Z,28.17
2023-08-19T06:26:58.718Z,28.70
2023-08-19T06:37:06.747Z,29.34
2023-08-19T06:47:14.924Z,30.39
2023-08-19T06:57:37.978Z,30.77
2023-08-19T07:07:53.105Z,30.84
2023-08-19T07:18:02.426Z,30.66
2023-08-19T07:28:16.818Z,30.25
2023-08-19T07:38:21.608Z,30.47
2023-08-19T07:48:26.862Z,30.35
2023-08-19T07:58:30.618Z,30.26
2023-08-19T08:08:34.379Z,30.13
2023-08-19T08:18:42.776Z,30.09
2023-08-19T08:28:46.816Z,30.43
2023-08-19T08:38:50.477Z,30.39
2023-08-19T08:48:57.417Z,30.89
2023-08-19T08:59:01.153Z,31.69
2023-08-19T09:09:10.497Z,31.54
2023-08-19T09:19:15.717Z,31.31
2023-08-19T09:29:20.949Z,30.99
2023-08-19T09:39:34.040Z,30.46
2023-08-19T09:49:38.731Z,30.91
2023-08-19T09:59:42.640Z,31.41
2023-08-19T10:09:46.409Z,31.52
2023-08-19T10:20:02.935Z,31.50
2023-08-19T10:30:26.406Z,31.92
2023-08-19T10:40:33.653Z,32.38
2023-08-19T10:50:39.039Z,32.86
2023-08-19T11:00:47.066Z,33.06
2023-08-19T11:10:52.091Z,33.47
2023-08-19T11:20:56.136Z,33.78
2023-08-19T11:31:01.938Z,34.03
2023-08-19T11:41:06.015Z,33.97
2023-08-19T11:51:18.302Z,34.20
2023-08-19T12:01:24.892Z,34.10
2023-08-19T12:11:34.791Z,33.57
2023-08-19T12:21:39.912Z,33.79
2023-08-19T12:31:45.604Z,33.66
2023-08-19T12:41:49.434Z,33.17
2023-08-19T12:51:53.151Z,33.15
2023-08-19T13:01:58.226Z,33.23
2023-08-19T13:12:04.636Z,33.49
2023-08-19T13:22:08.912Z,33.45
2023-08-19T13:32:13.602Z,33.97
2023-08-19T13:42:17.473Z,34.07
2023-08-19T13:52:48.644Z,33.61
2023-08-19T14:02:52.370Z,33.28
2023-08-19T14:12:56.897Z,33.42
2023-08-19T14:23:01.722Z,33.57
2023-08-19T14:33:06.254Z,33.42
2023-08-19T14:43:10.369Z,33.31
2023-08-19T14:53:14.265Z,33.91
2023-08-19T15:03:19.138Z,34.03
2023-08-19T15:13:23.717Z,33.83
2023-08-19T15:23:31.706Z,33.22
2023-08-19T15:33:43.932Z,33.02
2023-08-19T15:43:47.608Z,33.28
2023-08-19T15:53:53.959Z,33.18
2023-08-19T16:04:01.181Z,33.12
2023-08-19T16:14:06.056Z,32.91
2023-08-19T16:24:09.851Z,32.25
2023-08-19T16:34:13.534Z,31.73
2023-08-19T16:44:17.912Z,31.57
2023-08-19T16:54:22.829Z,31.20
2023-08-19T17:04:27.056Z,30.94
2023-08-19T17:14:36.989Z,30.58
2023-08-19T17:24:40.705Z,30.29
2023-08-19T17:34:46.341Z,29.97
2023-08-19T17:44:54.892Z,29.63
2023-08-19T17:55:02.457Z,29.26
2023-08-19T18:05:06.839Z,28.81
2023-08-19T18:15:14.792Z,28.02
2023-08-19T18:25:18.543Z,27.71
2023-08-19T18:35:23.846Z,27.50
2023-08-19T18:45:28.875Z,27.46
2023-08-19T18:55:36.568Z,27.43
2023-08-19T19:05:40.944Z,27.48
2023-08-19T19:15:44.980Z,27.40
2023-08-19T19:25:48.752Z,27.19
2023-08-19T19:35:56.924Z,26.94
2023-08-19T19:46:01.441Z,26.77
2023-08-19T19:56:06.905Z,26.64
2023-08-19T20:06:11.869Z,26.58
2023-08-19T20:16:20.593Z,26.43
2023-08-19T20:26:27.275Z,26.13
2023-08-19T20:36:34.852Z,25.80
2023-08-19T20:46:42.440Z,25.72
2023-08-19T20:56:49.742Z,25.61
2023-08-19T21:06:53.424Z,25.47
2023-08-19T21:17:01.987Z,25.30
2023-08-19T21:27:08.859Z,25.11
2023-08-19T21:37:14.528Z,24.96
2023-08-19T21:47:18.221Z,24.78
2023-08-19T21:57:21.935Z,24.59
2023-08-19T22:07:25.625Z,24.43
2023-08-19T22:17:30.988Z,24.27
2023-08-19T22:27:35.651Z,24.21
2023-08-19T22:37:39.785Z,24.10
2023-08-19T22:47:47.772Z,24.07
2023-08-19T22:57:51.904Z,24.00
2023-08-19T23:07:55.981Z,23.95
2023-08-19T23:18:01.546Z,23.93
2023-08-19T23:28:05.702Z,23.79
2023-08-19T23:38:10.013Z,23.67
2023-08-19T23:48:14.411Z,23.44
2023-08-19T23:58:21.138Z,23.36
